createdAt,value
2018-08-18T00:00:17.871Z,16.10
2018-08-18T00:02:46.492Z,16.00
2018-08-18T00:05:16.013Z,15.90
2018-08-18T00:07:44.756Z,15.90
2018-08-18T00:10:15.644Z,15.90
2018-08-18T00:12:45.147Z,15.80
2018-08-18T00:15:13.676Z,16.10
2018-08-18T00:17:42.504Z,16.20
2018-08-18T00:20:18.993Z,16.10
2018-08-18T00:22:48.993Z,16.00
2018-08-18T00:25:17.601Z,15.90
2018-08-18T00:27:46.177Z,15.80
2018-08-18T00:30:20.147Z,15.80
2018-08-18T00:32:48.705Z,15.70
2018-08-18T00:35:17.271Z,15.60
2018-08-18T00:37:45.935Z,15.60
2018-08-18T00:40:14.596Z,15.60
2018-08-18T00:42:43.125Z,15.50
2018-08-18T00:45:12.779Z,15.50
2018-08-18T00:47:41.487Z,15.50
2018-08-18T00:50:11.245Z,15.50
2018-08-18T00:52:39.949Z,15.50
2018-08-18T00:55:08.717Z,15.60
2018-08-18T00:57:37.256Z,15.60
2018-08-18T01:00:06.668Z,15.60
2018-08-18T01:02:35.390Z,15.60
2018-08-18T01:05:04.633Z,15.70
2018-08-18T01:07:33.506Z,15.70
2018-08-18T01:10:03.344Z,15.60
2018-08-18T01:12:32.034Z,15.60
2018-08-18T01:15:00.676Z,15.60
2018-08-18T01:17:29.039Z,15.60
2018-08-18T01:19:58.611Z,15.60
2018-08-18T01:22:27.915Z,15.50
2018-08-18T01:24:57.468Z,15.50
2018-08-18T01:27:26.230Z,15.50
2018-08-18T01:30:00.068Z,15.50
2018-08-18T01:32:30.287Z,15.50
2018-08-18T01:34:58.855Z,15.50
2018-08-18T01:37:27.440Z,15.50
2018-08-18T01:39:56.088Z,15.50
2018-08-18T01:42:24.751Z,15.40
2018-08-18T01:44:54.376Z,15.50
2018-08-18T01:47:23.179Z,15.50
2018-08-18T01:49:51.648Z,15.50
2018-08-18T01:52:24.135Z,15.50
2018-08-18T01:54:52.753Z,15.50
2018-08-18T01:57:22.490Z,15.50
2018-08-18T01:59:51.476Z,15.50
2018-08-18T02:02:24.314Z,15.50
2018-08-18T02:04:53.792Z,15.50
2018-08-18T02:07:28.093Z,15.50
2018-08-18T02:09:57.041Z,15.50
2018-08-18T02:12:26.446Z,15.60
2018-08-18T02:14:55.612Z,15.70
2018-08-18T02:17:30.297Z,15.60
2018-08-18T02:19:59.290Z,15.70
2018-08-18T02:22:28.744Z,15.70
2018-08-18T02:24:57.300Z,15.80
2018-08-18T02:27:26.240Z,15.70
2018-08-18T02:30:06.688Z,15.60
2018-08-18T02:32:37.300Z,15.60
2018-08-18T02:35:06.435Z,15.60
2018-08-18T02:37:35.176Z,15.50
2018-08-18T02:40:04.998Z,15.60
2018-08-18T02:42:33.558Z,15.50
2018-08-18T02:45:02.095Z,15.50
2018-08-18T02:47:30.601Z,15.40
2018-08-18T02:50:01.225Z,15.40
2018-08-18T02:52:34.261Z,15.40
2018-08-18T02:55:06.039Z,15.30
2018-08-18T02:57:38.987Z,15.30
2018-08-18T03:00:09.812Z,15.30
2018-08-18T03:02:38.406Z,15.40
2018-08-18T03:05:06.936Z,15.30
2018-08-18T03:07:39.162Z,15.50
2018-08-18T03:10:15.769Z,15.60
2018-08-18T03:12:44.913Z,15.70
2018-08-18T03:15:34.059Z,15.80
2018-08-18T03:18:02.581Z,15.80
2018-08-18T03:20:31.283Z,15.70
2018-08-18T03:23:00.009Z,15.60
2018-08-18T03:25:39.764Z,15.50
2018-08-18T03:28:08.375Z,15.40
2018-08-18T03:30:37.491Z,15.30
2018-08-18T03:33:06.317Z,15.10
2018-08-18T03:35:35.216Z,15.10
2018-08-18T03:38:03.791Z,15.00
2018-08-18T03:40:32.396Z,15.00
2018-08-18T03:43:01.711Z,15.00
2018-08-18T03:45:30.244Z,15.00
2018-08-18T03:47:58.880Z,15.00
2018-08-18T03:50:41.927Z,15.00
2018-08-18T03:53:11.298Z,15.10
2018-08-18T03:55:40.528Z,15.00
2018-08-18T03:58:09.413Z,15.00
2018-08-18T04:00:38.385Z,15.00
2018-08-18T04:03:06.981Z,15.00
2018-08-18T04:05:37.586Z,15.00
2018-08-18T04:08:06.240Z,15.00
2018-08-18T04:10:34.782Z,14.90
2018-08-18T04:13:03.475Z,14.90
2018-08-18T04:15:31.960Z,14.80
2018-08-18T04:18:04.688Z,14.70
2018-08-18T04:20:33.390Z,14.70
2018-08-18T04:23:01.916Z,14.70
2018-08-18T04:25:30.628Z,14.70
2018-08-18T04:27:59.452Z,14.70
2018-08-18T04:30:27.948Z,14.70
2018-08-18T04:32:59.840Z,14.70
2018-08-18T04:35:29.664Z,14.90
2018-08-18T04:37:59.206Z,14.90
2018-08-18T04:40:28.615Z,14.80
2018-08-18T04:42:58.585Z,14.80
2018-08-18T04:45:27.909Z,14.80
2018-08-18T04:47:56.468Z,14.80
2018-08-18T04:50:25.186Z,14.80
2018-08-18T04:52:54.682Z,14.80
2018-08-18T04:55:23.436Z,14.90
2018-08-18T04:57:52.151Z,14.80
2018-08-18T05:00:27.402Z,14.90
2018-08-18T05:02:57.717Z,14.90
2018-08-18T05:05:29.788Z,14.90
2018-08-18T05:07:59.601Z,14.90
2018-08-18T05:10:28.751Z,15.00
2018-08-18T05:12:57.381Z,15.00
2018-08-18T05:15:25.950Z,15.00
2018-08-18T05:17:54.467Z,15.00
2018-08-18T05:20:25.908Z,15.00
2018-08-18T05:22:55.883Z,15.00
2018-08-18T05:25:30.044Z,14.90
2018-08-18T05:27:58.936Z,14.90
2018-08-18T05:30:27.470Z,14.90
2018-08-18T05:32:56.165Z,14.90
2018-08-18T05:35:24.823Z,14.90
2018-08-18T05:37:53.432Z,14.90
2018-08-18T05:40:22.600Z,14.90
2018-08-18T05:42:51.256Z,14.90
2018-08-18T05:45:32.876Z,14.90
2018-08-18T05:48:01.596Z,15.00
2018-08-18T05:50:30.901Z,14.90
2018-08-18T05:53:24.289Z,15.00
2018-08-18T05:55:53.266Z,15.00
2018-08-18T05:58:21.904Z,15.10
2018-08-18T06:00:56.459Z,15.20
2018-08-18T06:03:25.749Z,15.30
2018-08-18T06:05:54.701Z,15.40
2018-08-18T06:08:23.217Z,15.50
2018-08-18T06:10:52.064Z,15.60
2018-08-18T06:13:21.572Z,15.60
2018-08-18T06:16:06.260Z,15.60
2018-08-18T06:18:36.603Z,15.70
2018-08-18T06:21:05.988Z,15.80
2018-08-18T06:23:35.002Z,15.80
2018-08-18T06:26:03.974Z,15.90
2018-08-18T06:28:33.265Z,16.00
2018-08-18T06:31:02.036Z,16.10
2018-08-18T06:33:30.722Z,16.20
2018-08-18T06:35:59.292Z,16.30
2018-08-18T06:38:28.519Z,16.50
2018-08-18T06:40:58.421Z,16.60
2018-08-18T06:43:28.012Z,16.70
2018-08-18T06:45:56.651Z,16.70
2018-08-18T06:48:25.365Z,16.70
2018-08-18T06:50:53.899Z,16.80
2018-08-18T06:53:22.636Z,17.00
2018-08-18T06:55:51.223Z,17.20
2018-08-18T06:58:20.001Z,17.30
2018-08-18T07:00:48.638Z,17.40
2018-08-18T07:03:28.492Z,17.50
2018-08-18T07:05:57.153Z,17.50
2018-08-18T07:08:25.684Z,17.40
2018-08-18T07:10:54.295Z,17.50
2018-08-18T07:13:22.804Z,17.70
2018-08-18T07:15:51.644Z,17.90
2018-08-18T07:18:20.244Z,17.80
2018-08-18T07:20:48.807Z,17.80
2018-08-18T07:23:17.710Z,17.90
2018-08-18T07:26:01.930Z,17.90
2018-08-18T07:28:30.646Z,17.90
2018-08-18T07:30:59.424Z,17.80
2018-08-18T07:33:28.231Z,17.90
2018-08-18T07:35:56.978Z,18.00
2018-08-18T07:38:25.775Z,18.10
2018-08-18T07:40:55.371Z,18.30
2018-08-18T07:43:26.152Z,18.40
2018-08-18T07:45:55.933Z,18.60
2018-08-18T07:48:25.120Z,18.80
2018-08-18T07:50:53.858Z,18.80
2018-08-18T07:53:23.515Z,18.90
2018-08-18T07:55:52.860Z,19.10
2018-08-18T07:58:23.002Z,19.30
2018-08-18T08:00:52.279Z,19.40
2018-08-18T08:03:21.553Z,19.50
2018-08-18T08:05:50.217Z,19.50
2018-08-18T08:08:18.833Z,19.60
2018-08-18T08:10:47.317Z,19.80
2018-08-18T08:13:16.135Z,20.00
2018-08-18T08:15:45.560Z,20.00
2018-08-18T08:18:15.346Z,20.10
2018-08-18T08:20:43.966Z,20.20
2018-08-18T08:23:12.605Z,20.30
2018-08-18T08:25:41.428Z,20.40
2018-08-18T08:28:10.546Z,20.60
2018-08-18T08:30:39.132Z,20.80
2018-08-18T08:33:08.048Z,20.90
2018-08-18T08:35:38.156Z,21.00
2018-08-18T08:38:06.756Z,21.00
2018-08-18T08:40:35.362Z,21.30
2018-08-18T08:43:04.124Z,21.30
2018-08-18T08:45:33.454Z,21.20
2018-08-18T08:48:02.240Z,21.20
2018-08-18T08:50:30.812Z,21.30
2018-08-18T08:53:00.119Z,21.30
2018-08-18T08:55:29.512Z,21.30
2018-08-18T08:57:58.241Z,21.20
2018-08-18T09:00:26.944Z,21.30
2018-08-18T09:02:55.843Z,21.20
2018-08-18T09:05:25.175Z,21.10
2018-08-18T09:07:53.804Z,21.10
2018-08-18T09:10:22.566Z,21.10
2018-08-18T09:12:51.815Z,21.30
2018-08-18T09:15:20.609Z,21.40
2018-08-18T09:17:49.174Z,21.50
2018-08-18T09:20:19.433Z,21.60
2018-08-18T09:22:57.468Z,21.80
2018-08-18T09:25:28.539Z,21.90
2018-08-18T09:27:58.342Z,21.90
2018-08-18T09:30:28.067Z,21.80
2018-08-18T09:33:04.376Z,21.70
2018-08-18T09:35:58.845Z,21.80
2018-08-18T09:38:27.539Z,21.90
2018-08-18T09:40:56.128Z,21.90
2018-08-18T09:43:25.791Z,21.70
2018-08-18T09:45:55.843Z,21.90
2018-08-18T09:48:25.546Z,22.10
2018-08-18T09:50:55.843Z,22.20
2018-08-18T09:53:24.907Z,22.40
2018-08-18T09:55:53.677Z,22.50
2018-08-18T09:58:22.689Z,22.50
2018-08-18T10:00:51.416Z,22.30
2018-08-18T10:03:20.247Z,22.40
2018-08-18T10:05:49.491Z,22.60
2018-08-18T10:08:18.417Z,22.70
2018-08-18T10:10:46.934Z,22.80
2018-08-18T10:13:15.557Z,23.00
2018-08-18T10:15:44.129Z,23.00
2018-08-18T10:18:12.737Z,23.10
2018-08-18T10:20:46.524Z,22.80
2018-08-18T10:23:15.263Z,22.80
2018-08-18T10:25:44.024Z,22.70
2018-08-18T10:28:13.314Z,22.80
2018-08-18T10:30:42.204Z,22.90
2018-08-18T10:33:11.575Z,23.30
2018-08-18T10:35:40.252Z,23.60
2018-08-18T10:38:08.992Z,23.80
2018-08-18T10:40:38.328Z,23.80
2018-08-18T10:43:06.996Z,23.70
2018-08-18T10:45:35.730Z,24.10
2018-08-18T10:48:04.614Z,24.40
2018-08-18T10:50:44.707Z,24.50
2018-08-18T10:53:13.401Z,24.30
2018-08-18T10:55:42.146Z,24.20
2018-08-18T10:58:10.868Z,24.00
2018-08-18T11:00:39.616Z,23.90
2018-08-18T11:03:09.088Z,23.80
2018-08-18T11:05:38.560Z,23.70
2018-08-18T11:08:09.690Z,23.70
2018-08-18T11:10:39.793Z,23.90
2018-08-18T11:13:08.653Z,24.40
2018-08-18T11:15:37.273Z,25.00
2018-08-18T11:18:05.927Z,25.20
2018-08-18T11:20:35.665Z,25.20
2018-08-18T11:23:12.383Z,24.90
2018-08-18T11:25:57.022Z,24.70
2018-08-18T11:28:25.839Z,24.90
2018-08-18T11:30:55.099Z,25.00
2018-08-18T11:33:37.187Z,25.40
2018-08-18T11:36:06.940Z,25.80
2018-08-18T11:38:35.683Z,25.70
2018-08-18T11:41:04.385Z,26.20
2018-08-18T11:43:35.728Z,26.60
2018-08-18T11:46:04.372Z,26.60
2018-08-18T11:48:33.853Z,26.50
2018-08-18T11:51:02.516Z,25.90
2018-08-18T11:53:31.023Z,25.40
2018-08-18T11:55:59.515Z,25.40
2018-08-18T11:58:28.237Z,25.70
2018-08-18T12:01:00.464Z,25.80
2018-08-18T12:03:33.569Z,26.00
2018-08-18T12:06:03.699Z,26.40
2018-08-18T12:08:33.960Z,26.50
2018-08-18T12:11:05.324Z,26.10
2018-08-18T12:13:39.472Z,25.90
2018-08-18T12:16:11.447Z,25.50
2018-08-18T12:18:41.744Z,25.50
2018-08-18T12:21:10.784Z,25.60
2018-08-18T12:23:41.915Z,26.10
2018-08-18T12:26:14.199Z,26.40
2018-08-18T12:28:47.122Z,26.50
2018-08-18T12:31:19.329Z,26.70
2018-08-18T12:33:48.087Z,27.10
2018-08-18T12:36:16.797Z,27.50
2018-08-18T12:38:48.227Z,27.30
2018-08-18T12:41:17.015Z,27.10
2018-08-18T12:43:46.691Z,27.00
2018-08-18T12:46:16.861Z,27.10
2018-08-18T12:48:46.704Z,27.20
2018-08-18T12:51:16.626Z,27.30
2018-08-18T12:53:49.654Z,27.00
2018-08-18T12:56:20.409Z,26.70
2018-08-18T12:58:49.399Z,26.40
2018-08-18T13:01:34.806Z,26.10
2018-08-18T13:04:04.917Z,26.00
2018-08-18T13:06:38.760Z,25.90
2018-08-18T13:09:09.072Z,25.80
2018-08-18T13:11:38.049Z,25.60
2018-08-18T13:14:06.718Z,25.40
2018-08-18T13:16:36.388Z,25.20
2018-08-18T13:19:05.643Z,25.10
2018-08-18T13:21:34.343Z,25.20
2018-08-18T13:24:04.431Z,25.30
2018-08-18T13:26:33.154Z,25.40
2018-08-18T13:29:03.108Z,25.60
2018-08-18T13:31:36.870Z,25.70
2018-08-18T13:34:05.680Z,25.60
2018-08-18T13:36:35.495Z,25.60
2018-08-18T13:39:05.783Z,25.90
2018-08-18T13:41:34.400Z,26.40
2018-08-18T13:44:03.041Z,26.80
2018-08-18T13:46:44.378Z,26.90
2018-08-18T13:49:12.884Z,26.90
2018-08-18T13:51:41.437Z,26.40
2018-08-18T13:54:10.329Z,26.50
2018-08-18T13:56:39.315Z,26.80
2018-08-18T13:59:08.029Z,26.80
2018-08-18T14:01:45.832Z,26.80
2018-08-18T14:04:20.890Z,26.60
2018-08-18T14:06:54.293Z,26.60
2018-08-18T14:09:22.987Z,26.90
2018-08-18T14:11:58.236Z,26.90
2018-08-18T14:14:27.523Z,26.50
2018-08-18T14:16:57.119Z,26.50
2018-08-18T14:19:25.659Z,26.70
2018-08-18T14:21:59.669Z,26.90
2018-08-18T14:24:33.430Z,27.00
2018-08-18T14:27:03.434Z,27.30
2018-08-18T14:29:33.288Z,27.60
2018-08-18T14:32:02.647Z,27.70
2018-08-18T14:34:32.197Z,27.40
2018-08-18T14:37:15.548Z,27.40
2018-08-18T14:39:44.797Z,27.40
2018-08-18T14:42:13.665Z,27.50
2018-08-18T14:44:42.334Z,27.70
2018-08-18T14:47:10.871Z,27.80
2018-08-18T14:49:39.407Z,27.90
2018-08-18T14:52:08.200Z,28.30
2018-08-18T14:54:39.638Z,28.40
2018-08-18T14:57:09.036Z,28.00
2018-08-18T14:59:38.506Z,27.50
2018-08-18T15:02:08.159Z,27.30
2018-08-18T15:04:36.926Z,27.10
2018-08-18T15:07:05.663Z,27.10
2018-08-18T15:09:37.577Z,27.40
2018-08-18T15:12:06.805Z,27.60
2018-08-18T15:14:36.179Z,27.40
2018-08-18T15:17:05.187Z,27.20
2018-08-18T15:19:34.178Z,27.00
2018-08-18T15:22:09.047Z,26.80
2018-08-18T15:24:37.967Z,26.80
2018-08-18T15:27:06.894Z,27.00
2018-08-18T15:29:35.606Z,26.90
2018-08-18T15:32:04.868Z,26.90
2018-08-18T15:34:33.612Z,27.30
2018-08-18T15:37:02.369Z,27.50
2018-08-18T15:39:31.153Z,27.70
2018-08-18T15:42:00.886Z,28.40
2018-08-18T15:44:29.480Z,28.50
2018-08-18T15:46:58.603Z,28.20
2018-08-18T15:49:27.318Z,28.30
2018-08-18T15:51:55.962Z,29.30
2018-08-18T15:54:25.918Z,30.10
2018-08-18T15:56:54.416Z,30.70
2018-08-18T15:59:23.112Z,31.50
2018-08-18T16:01:51.728Z,31.40
2018-08-18T16:04:20.648Z,31.40
2018-08-18T16:06:49.205Z,31.60
2018-08-18T16:09:17.936Z,32.00
2018-08-18T16:11:46.594Z,32.40
2018-08-18T16:14:15.281Z,32.40
2018-08-18T16:19:39.840Z,32.40
2018-08-18T16:22:08.917Z,32.60
2018-08-18T16:24:40.828Z,32.50
2018-08-18T16:27:29.369Z,32.70
2018-08-18T16:30:03.409Z,31.20
2018-08-18T16:32:32.640Z,31.00
2018-08-18T16:35:07.998Z,30.50
2018-08-18T16:37:39.828Z,30.20
2018-08-18T16:40:24.436Z,30.90
2018-08-18T16:42:54.125Z,31.00
2018-08-18T16:45:23.059Z,30.20
2018-08-18T16:47:52.863Z,29.70
2018-08-18T16:50:22.341Z,28.70
2018-08-18T16:52:51.112Z,28.00
2018-08-18T16:55:19.987Z,27.30
2018-08-18T16:57:53.795Z,26.80
2018-08-18T17:00:22.790Z,26.80
2018-08-18T17:02:51.889Z,27.10
2018-08-18T17:05:20.879Z,27.90
2018-08-18T17:07:50.005Z,28.40
2018-08-18T17:10:18.998Z,28.70
2018-08-18T17:12:48.083Z,29.20
2018-08-18T17:15:17.040Z,29.50
2018-08-18T17:17:46.082Z,29.50
2018-08-18T17:20:15.161Z,29.20
2018-08-18T17:22:45.274Z,28.80
2018-08-18T17:25:14.259Z,28.90
2018-08-18T17:27:43.976Z,28.80
2018-08-18T17:30:13.240Z,29.20
2018-08-18T17:32:42.245Z,29.20
2018-08-18T17:35:11.517Z,28.70
2018-08-18T17:37:40.470Z,28.00
2018-08-18T17:40:10.252Z,27.10
2018-08-18T17:42:40.424Z,26.60
2018-08-18T17:45:09.312Z,26.00
2018-08-18T17:47:42.503Z,25.80
2018-08-18T17:50:11.635Z,25.70
2018-08-18T17:52:40.619Z,25.40
2018-08-18T17:55:15.574Z,25.10
2018-08-18T17:57:44.556Z,24.90
2018-08-18T18:00:17.676Z,24.70
2018-08-18T18:02:52.407Z,24.50
2018-08-18T18:05:23.879Z,24.20
2018-08-18T18:07:57.078Z,24.00
2018-08-18T18:10:28.583Z,23.80
2018-08-18T18:12:57.481Z,23.60
2018-08-18T18:15:35.358Z,23.40
2018-08-18T18:18:04.678Z,23.10
2018-08-18T18:20:34.847Z,22.80
2018-08-18T18:23:03.912Z,22.50
2018-08-18T18:25:32.671Z,22.20
2018-08-18T18:28:02.148Z,22.00
2018-08-18T18:30:31.184Z,21.80
2018-08-18T18:33:00.787Z,21.50
2018-08-18T18:35:29.918Z,21.40
2018-08-18T18:38:00.943Z,21.20
2018-08-18T18:40:34.149Z,21.00
2018-08-18T18:43:03.052Z,20.90
2018-08-18T18:45:33.124Z,20.80
2018-08-18T18:48:02.206Z,20.70
2018-08-18T18:50:32.090Z,20.60
2018-08-18T18:53:01.311Z,20.50
2018-08-18T18:55:30.584Z,20.40
2018-08-18T18:58:09.486Z,20.20
2018-08-18T19:00:39.743Z,20.10
2018-08-18T19:03:10.442Z,20.10
2018-08-18T19:05:40.461Z,20.10
2018-08-18T19:08:11.886Z,20.00
2018-08-18T19:10:40.905Z,20.00
2018-08-18T19:13:10.600Z,19.80
2018-08-18T19:15:39.788Z,19.80
2018-08-18T19:18:10.016Z,19.80
2018-08-18T19:20:39.000Z,19.80
2018-08-18T19:23:18.953Z,19.80
2018-08-18T19:25:49.307Z,19.80
2018-08-18T19:28:20.582Z,19.80
2018-08-18T19:30:49.788Z,19.70
2018-08-18T19:33:19.105Z,19.70
2018-08-18T19:35:49.926Z,19.70
2018-08-18T19:38:20.475Z,19.70
2018-08-18T19:40:51.569Z,19.80
2018-08-18T19:43:21.803Z,19.80
2018-08-18T19:45:51.347Z,19.80
2018-08-18T19:48:24.859Z,19.80
2018-08-18T19:50:58.966Z,19.80
2018-08-18T19:53:32.324Z,19.90
2018-08-18T19:56:03.720Z,19.90
2018-08-18T19:58:32.709Z,19.80
2018-08-18T20:01:01.674Z,19.80
2018-08-18T20:03:30.880Z,19.80
2018-08-18T20:06:01.121Z,19.80
2018-08-18T20:08:30.367Z,19.80
2018-08-18T20:11:01.908Z,19.80
2018-08-18T20:13:32.156Z,19.80
2018-08-18T20:16:02.825Z,19.80
2018-08-18T20:18:33.491Z,19.80
2018-08-18T20:21:02.458Z,19.70
2018-08-18T20:23:31.396Z,19.70
2018-08-18T20:26:01.454Z,19.60
2018-08-18T20:28:30.922Z,19.60
2018-08-18T20:31:08.690Z,19.70
2018-08-18T20:33:37.621Z,19.60
2018-08-18T20:36:06.702Z,19.70
2018-08-18T20:38:41.836Z,19.60
2018-08-18T20:41:10.723Z,19.60
2018-08-18T20:43:40.041Z,19.70
2018-08-18T20:46:09.192Z,19.70
2018-08-18T20:48:38.214Z,19.60
2018-08-18T20:51:07.761Z,19.70
2018-08-18T20:53:36.721Z,19.70
2018-08-18T20:56:06.372Z,19.60
2018-08-18T20:58:35.961Z,19.60
2018-08-18T21:01:04.932Z,19.60
2018-08-18T21:03:47.091Z,19.60
2018-08-18T21:06:17.840Z,19.60
2018-08-18T21:08:46.955Z,19.60
2018-08-18T21:11:16.219Z,19.50
2018-08-18T21:13:47.781Z,19.50
2018-08-18T21:16:17.277Z,19.50
2018-08-18T21:18:46.216Z,19.50
2018-08-18T21:21:35.359Z,19.50
2018-08-18T21:24:04.622Z,19.50
2018-08-18T21:26:34.212Z,19.50
2018-08-18T21:29:03.226Z,19.40
2018-08-18T21:31:33.102Z,19.40
2018-08-18T21:34:03.081Z,19.40
2018-08-18T21:36:32.326Z,19.30
2018-08-18T21:39:05.113Z,19.30
2018-08-18T21:41:35.788Z,19.30
2018-08-18T21:44:07.133Z,19.30
2018-08-18T21:46:35.980Z,19.30
2018-08-18T21:49:04.805Z,19.30
2018-08-18T21:51:33.972Z,19.30
2018-08-18T21:54:03.320Z,19.30
2018-08-18T21:56:36.546Z,19.30
2018-08-18T21:59:06.723Z,19.30
2018-08-18T22:01:35.849Z,19.30
2018-08-18T22:04:05.111Z,19.30
2018-08-18T22:06:34.234Z,19.30
2018-08-18T22:09:15.228Z,19.30
2018-08-18T22:11:44.167Z,19.30
2018-08-18T22:14:13.961Z,19.30
2018-08-18T22:16:48.146Z,19.30
2018-08-18T22:19:20.804Z,19.30
2018-08-18T22:21:49.644Z,19.20
2018-08-18T22:24:18.460Z,19.20
2018-08-18T22:26:47.365Z,19.30
2018-08-18T22:29:16.313Z,19.20
2018-08-18T22:31:45.055Z,19.10
2018-08-18T22:34:14.198Z,19.10
2018-08-18T22:36:43.064Z,19.10
2018-08-18T22:39:12.183Z,19.10
2018-08-18T22:41:42.434Z,19.10
2018-08-18T22:44:11.195Z,19.00
2018-08-18T22:46:40.189Z,19.00
2018-08-18T22:49:09.104Z,19.00
2018-08-18T22:51:37.966Z,18.90
2018-08-18T22:54:06.909Z,18.80
2018-08-18T22:56:36.229Z,18.90
2018-08-18T22:59:06.887Z,18.90
2018-08-18T23:01:36.998Z,18.80
2018-08-18T23:04:18.725Z,18.70
2018-08-18T23:06:47.600Z,18.60
2018-08-18T23:09:16.314Z,18.60
2018-08-18T23:11:45.123Z,18.50
2018-08-18T23:14:13.900Z,18.40
2018-08-18T23:16:49.313Z,18.30
2018-08-18T23:19:18.864Z,18.30
2018-08-18T23:21:47.806Z,18.20
2018-08-18T23:24:27.437Z,18.10
2018-08-18T23:26:56.880Z,18.00
2018-08-18T23:29:25.728Z,18.00
2018-08-18T23:31:54.590Z,17.90
2018-08-18T23:34:23.920Z,18.00
2018-08-18T23:36:53.017Z,18.00
2018-08-18T23:39:21.881Z,18.00
2018-08-18T23:41:59.764Z,18.00
2018-08-18T23:44:29.404Z,17.90
2018-08-18T23:46:58.829Z,17.90
2018-08-18T23:49:27.681Z,17.80
2018-08-18T23:51:57.030Z,17.80
2018-08-18T23:54:25.767Z,17.70
2018-08-18T23:56:54.601Z,17.70
2018-08-18T23:59:24.180Z,17.60
